Terminal Aerodrome Forecast
Issued by NWS

Home | Current Version | Previous Version | Text Only | Print | Product List | Glossary On
Versions: 1 2 3 4 5 6 7 8 9 10 11 12 13 14
538
FTUS43 KMQT 071453 AAB
TAFIWD
TAF AMD
KIWD 071453Z 0715/0812 24018G26KT 1 1/2SM -SN OVC022
     FM071600 24017G28KT P6SM -SHSN OVC015
     FM071900 24016G29KT 3SM -SHSN OVC015
     FM072100 25016G28KT 2SM -SHSN OVC015
     FM080000 26015G27KT 1 1/2SM -SHSN BLSN OVC015
     FM080300 26013G23KT 1 1/2SM -SHSN BLSN OVC010
     FM080800 29010KT 1SM -SHSN OVC008=

USA.gov is the U.S. government's official web portal to all federal, state and local government web resources and services.